Latest Weather Observations for Telfer

IDW60801

Issued at 11:32 pm WST Tuesday 31 March 2015 (issued every 30 minutes, with the page automatically refreshed every 10 minutes)

About weather observations | Map of weather stations | Latest weather observations for WA | Other Formats
Station Details ID: 013030 Name: TELFER AERO Lat: -21.71 Lon: 122.23 Height: 291.9 m
Data from the previous 72 hours. | See also: Recent months at Telfer
Date/Time
WST
Temp
°C
App
Temp
°C
Dew
Point
Rel
Hum
%
Delta-T
°C
Wind Press
QNH
hPa
Press
MSL
hPa
Rain
since 9 am
mm
Dir
 
Spd
km/h
Gust
km/h
Spd
kts
Gust
kts
31/11:30pm 29.9 26.6 10.9 31 11.0 S 19 24 10 13 1014.2 1011.9 0.0
31/11:00pm 29.8 26.9 10.9 31 11.0 S 17 22 9 12 1014.4 1012.2 0.0
31/10:30pm 30.6 27.4 11.1 30 11.4 S 19 22 10 12 1014.5 1012.3 0.0
31/10:00pm 31.2 27.8 11.1 29 11.8 SSE 20 24 11 13 1014.4 1012.2 0.0
31/09:30pm 32.5 28.9 10.5 26 12.8 S 20 26 11 14 1014.3 1012.0 0.0
31/09:00pm 32.9 30.7 10.9 26 12.9 SSW 13 17 7 9 1014.3 1012.0 0.0
31/08:30pm 33.7 31.0 10.3 24 13.7 SW 15 19 8 10 1013.9 1011.6 0.0
31/08:00pm 34.5 32.2 10.4 23 14.2 SW 13 19 7 10 1013.7 1011.4 0.0
31/07:30pm 35.0 32.0 10.8 23 14.3 SSW 17 24 9 13 1013.6 1011.3 0.0
31/07:00pm 35.6 32.0 9.9 21 15.1 W 19 26 10 14 1013.2 1010.9 0.0
31/06:30pm 35.6 33.5 9.9 21 15.1 WNW 11 13 6 7 1012.6 1010.4 0.0
31/06:00pm 36.7 33.7 9.3 19 16.0 WNW 15 19 8 10 1012.2 1010.0 0.0
31/05:30pm 37.4 34.2 9.9 19 16.2 WNW 17 24 9 13 1011.9 1009.7 0.0
31/05:00pm 38.2 36.3 8.9 17 17.1 NW 9 17 5 9 1011.6 1009.4 0.0
31/04:30pm 38.6 35.2 9.2 17 17.3 W 17 26 9 14 1011.5 1009.3 0.0
31/04:00pm 38.9 35.7 8.5 16 17.7 WSW 15 22 8 12 1011.4 1009.2 0.0
31/03:30pm 39.2 37.8 8.8 16 17.8 W 6 17 3 9 1011.3 1009.1 0.0
31/03:00pm 39.4 37.5 8.9 16 17.9 WSW 9 20 5 11 1011.4 1009.2 0.0
31/02:30pm 39.6 36.3 8.1 15 18.3 NNW 15 24 8 13 1011.5 1009.3 0.0
31/02:00pm 39.2 37.0 7.8 15 18.1 WNW 9 20 5 11 1011.7 1009.5 0.0
31/01:30pm 38.6 35.0 8.3 16 17.6 NNW 17 22 9 12 1012.0 1009.8 0.0
31/01:00pm 38.6 36.9 8.3 16 17.6 NE 7 15 4 8 1012.3 1010.1 0.0
31/12:30pm 38.7 37.0 8.4 16 17.6 SSW 7 13 4 7 1012.8 1010.6 0.0
31/12:00pm 37.1 34.7 8.8 18 16.4 WSW 11 17 6 9 1013.4 1011.1 0.0
31/11:30am 36.9 34.7 9.5 19 16.0 SSW 11 20 6 11 1013.9 1011.6 0.0
31/11:00am 36.6 34.7 9.2 19 15.9 SE 9 15 5 8 1014.4 1012.2 0.0
31/10:30am 36.0 33.6 8.7 19 15.7 E 11 19 6 10 1015.0 1012.8 0.0
31/10:00am 34.7 32.1 9.2 21 14.7 SE 13 22 7 12 1015.3 1013.1 0.0
31/09:30am 34.4 31.5 9.6 22 14.4 SE 15 20 8 11 1015.5 1013.3 0.0
31/09:00am 33.0 29.6 9.1 23 13.7 SSE 17 22 9 12 1015.7 1013.5 0.0
31/08:30am 32.3 28.7 10.4 26 12.7 SSE 20 24 11 13 1015.7 1013.5 0.0
31/08:00am 31.2 26.5 9.4 26 12.4 SE 24 30 13 16 1015.5 1013.3 0.0
31/07:30am 29.4 26.2 10.0 30 11.1 SSE 17 20 9 11 1015.6 1013.4 0.0
31/07:00am 28.4 24.6 9.2 30 10.8 S 19 26 10 14 1015.6 1013.4 0.0
31/06:30am 28.9 25.7 8.6 28 11.3 S 15 20 8 11 1015.5 1013.3 0.0
31/06:00am 28.3 25.0 8.1 28 11.1 S 15 22 8 12 1015.3 1013.1 0.0
31/05:30am 28.1 25.3 8.4 29 10.9 SSW 13 17 7 9 1014.9 1012.7 0.0
31/05:00am 28.0 25.3 8.8 30 10.7 SSE 13 13 7 7 1014.7 1012.5 0.0
31/04:30am 27.6 25.7 9.0 31 10.4 SSE 9 11 5 6 1014.4 1012.2 0.0
31/04:00am 26.4 24.7 9.7 35 9.3 SE 9 9 5 5 1014.2 1011.9 0.0
31/03:30am 27.0 26.9 9.4 33 9.8 CALM 0 0 0 0 1014.0 1011.7 0.0
31/03:00am 27.3 27.4 10.1 34 9.7 CALM 0 0 0 0 1014.0 1011.7 0.0
31/02:30am 28.2 27.7 8.0 28 11.1 CALM 0 0 0 0 1014.0 1011.7 0.0
31/02:00am 28.6 28.2 8.3 28 11.2 CALM 0 0 0 0 1014.2 1011.9 0.0
31/01:30am 28.8 28.1 8.5 28 11.3 SSW 2 6 1 3 1014.3 1012.0 0.0
31/01:00am 28.1 27.9 8.9 30 10.7 CALM 0 0 0 0 1014.6 1012.4 0.0
31/12:30am 28.6 27.2 8.8 29 11.0 E 6 7 3 4 1014.7 1012.5 0.0
31/12:00am 29.5 27.1 8.5 27 11.7 SSE 11 15 6 8 1014.9 1012.7 0.0
 
Date/Time
WST
Temp
°C
App
Temp
°C
Dew
Point
Rel
Hum
%
Delta-T
°C
Wind Press
QNH
hPa
Press
MSL
hPa
Rain
since 9 am
mm
Dir
 
Spd
km/h
Gust
km/h
Spd
kts
Gust
kts
30/11:30pm 29.9 27.0 8.3 26 12.0 SSE 13 17 7 9 1015.1 1012.9 0.0
30/11:00pm 30.3 27.4 8.1 25 12.3 S 13 17 7 9 1015.3 1013.1 0.0
30/10:30pm 30.7 28.6 8.4 25 12.5 SSE 9 15 5 8 1015.4 1013.2 0.0
30/10:00pm 30.9 28.7 8.0 24 12.7 SSE 9 13 5 7 1015.5 1013.3 0.0
30/09:30pm 30.8 28.4 8.5 25 12.5 SSE 11 15 6 8 1015.5 1013.3 0.0
30/09:00pm 30.6 27.9 8.9 26 12.2 SSE 13 15 7 8 1015.6 1013.4 0.0
30/08:30pm 30.8 28.4 8.5 25 12.5 SSE 11 13 6 7 1015.6 1013.4 0.0
30/08:00pm 31.0 28.8 9.3 26 12.3 SE 11 13 6 7 1015.4 1013.2 0.0
30/07:30pm 31.4 28.7 9.0 25 12.7 SE 13 15 7 8 1015.2 1013.0 0.0
30/07:00pm 31.8 29.0 8.7 24 13.1 SE 13 17 7 9 1014.9 1012.7 0.0
30/06:30pm 32.5 30.1 8.7 23 13.5 SE 11 13 6 7 1014.5 1012.3 0.0
30/06:00pm 33.3 31.1 8.0 21 14.2 ESE 9 11 5 6 1014.1 1011.8 0.0
30/05:30pm 34.1 31.7 7.2 19 15.0 E 9 13 5 7 1013.9 1011.6 0.0
30/05:00pm 34.9 31.4 7.1 18 15.6 E 15 20 8 11 1013.6 1011.3 0.0
30/04:30pm 35.3 32.0 6.6 17 16.0 ENE 13 19 7 10 1013.5 1011.2 0.0
30/04:00pm 35.8 32.3 7.0 17 16.2 NE 15 20 8 11 1013.5 1011.2 0.0
30/03:30pm 35.3 31.3 6.6 17 16.0 NE 17 24 9 13 1013.5 1011.2 0.0
30/03:00pm 35.4 31.4 6.6 17 16.0 NNE 17 22 9 12 1013.7 1011.4 0.0
30/02:30pm 35.5 30.7 5.8 16 16.3 NE 20 32 11 17 1013.7 1011.4 0.0
30/02:00pm 35.6 31.6 6.8 17 16.1 ENE 17 30 9 16 1013.9 1011.6 0.0
30/01:30pm 35.5 30.7 5.8 16 16.3 ENE 20 30 11 16 1014.1 1011.8 0.0
30/01:00pm 34.7 30.0 6.1 17 15.7 ENE 20 28 11 15 1014.5 1012.3 0.0
30/12:30pm 34.2 29.8 6.5 18 15.3 ENE 19 26 10 14 1014.8 1012.6 0.0
30/12:00pm 34.0 29.5 7.1 19 15.0 E 20 28 11 15 1015.2 1013.0 0.0
30/11:30am 33.8 29.5 7.7 20 14.7 E 20 30 11 16 1015.6 1013.4 0.0
30/11:00am 34.0 29.7 7.9 20 14.7 E 20 30 11 16 1016.1 1013.9 0.0
30/10:30am 33.9 28.5 7.8 20 14.7 E 26 35 14 19 1016.6 1014.4 0.0
30/10:00am 33.1 28.2 8.5 22 13.9 E 24 33 13 18 1017.0 1014.7 0.0
30/09:30am 32.2 27.5 9.1 24 13.2 E 24 33 13 18 1017.2 1014.9 0.0
30/09:00am 30.6 25.8 8.9 26 12.2 E 24 32 13 17 1017.2 1014.9 0.0
30/08:30am 30.1 26.2 9.6 28 11.7 ESE 20 30 11 16 1017.2 1014.9 0.0
30/08:00am 29.6 26.0 9.7 29 11.3 ESE 19 26 10 14 1017.0 1014.7 0.0
30/07:30am 29.0 26.0 10.6 32 10.6 E 17 20 9 11 1016.6 1014.4 0.0
30/07:00am 28.8 26.0 11.4 34 10.1 E 17 22 9 12 1016.4 1014.2 0.0
30/06:30am 28.6 25.8 11.2 34 10.1 E 17 22 9 12 1015.9 1013.7 0.0
30/06:00am 27.5 26.5 12.3 39 8.9 ESE 9 11 5 6 1015.7 1013.5 0.0
30/05:30am 27.8 26.1 12.6 39 9.0 ESE 13 15 7 8 1015.3 1013.1 0.0
30/05:00am 28.0 26.4 12.8 39 9.0 E 13 17 7 9 1015.3 1013.1 0.0
30/04:30am 28.7 27.0 12.6 37 9.6 ENE 13 17 7 9 1014.6 1012.4 0.0
30/04:00am 28.3 27.5 13.0 39 9.1 NE 9 13 5 7 1014.3 1012.0 0.0
30/03:30am 29.0 29.8 13.6 38 9.3 SE 2 6 1 3 1014.1 1011.8 0.0
30/03:00am 29.2 28.4 13.0 37 9.7 SSE 9 11 5 6 1014.1 1011.8 0.0
30/02:30am 29.6 28.0 12.9 35 10.0 SSE 13 15 7 8 1014.1 1011.8 0.0
30/02:00am 30.3 28.4 11.8 32 10.9 S 13 17 7 9 1014.2 1011.9 0.0
30/01:30am 29.7 27.7 12.6 35 10.2 SSE 15 20 8 11 1014.5 1012.3 0.0
30/01:00am 29.6 28.0 13.8 38 9.6 SSE 15 20 8 11 1014.9 1012.7 0.0
30/12:30am 29.9 27.0 12.8 35 10.2 E 20 43 11 23 1015.8 1013.6 0.0
30/12:26am 30.7 28.7 11.6 31 11.2 ENE 13 43 7 23 1016.0 1013.8 0.0
30/12:00am 30.7 29.9 11.6 31 11.2 NE 7 15 4 8 1016.2 1014.0 0.0
 
Date/Time
WST
Temp
°C
App
Temp
°C
Dew
Point
Rel
Hum
%
Delta-T
°C
Wind Press
QNH
hPa
Press
MSL
hPa
Rain
since 9 am
mm
Dir
 
Spd
km/h
Gust
km/h
Spd
kts
Gust
kts
29/11:30pm 30.8 28.3 12.2 32 11.1 NNE 17 24 9 13 1016.6 1014.4 0.0
29/11:00pm 29.8 25.8 11.8 33 10.6 N 24 37 13 20 1016.9 1014.6 0.0
29/10:30pm 31.0 28.0 12.4 32 11.1 NE 20 44 11 24 1016.6 1014.4 0.0
29/10:28pm 30.8 28.0 12.7 33 10.8 ENE 19 44 10 24 1016.6 1014.4 0.0
29/10:00pm 30.6 28.1 11.1 30 11.4 ENE 15 20 8 11 1017.0 1014.7 0.0
29/09:30pm 30.6 28.9 11.1 30 11.4 ENE 11 15 6 8 1017.2 1014.9 0.0
29/09:00pm 30.3 27.1 11.8 32 10.9 NNE 20 32 11 17 1017.4 1015.1 0.0
29/08:30pm 30.3 30.4 12.7 34 10.5 N 4 9 2 5 1017.2 1014.9 0.0
29/08:00pm 30.5 31.3 12.4 33 10.8 CALM 0 0 0 0 1016.9 1014.6 0.0
29/07:30pm 30.5 31.3 12.4 33 10.8 CALM 0 2 0 1 1016.5 1014.3 0.0
29/07:00pm 30.6 29.7 12.5 33 10.8 SSE 9 13 5 7 1016.3 1014.1 0.0
29/06:30pm 30.3 29.4 12.7 34 10.5 SSW 9 11 5 6 1016.2 1014.0 0.0
29/06:00pm 30.2 28.8 13.5 36 10.1 SSE 13 17 7 9 1015.9 1013.7 0.0
29/05:30pm 31.5 28.8 11.8 30 11.7 SE 17 20 9 11 1015.8 1013.6 0.0
29/05:00pm 31.2 28.2 12.5 31 11.2 SE 20 28 11 15 1015.5 1013.3 0.0
29/04:30pm 31.4 27.1 12.2 30 11.4 ESE 26 33 14 18 1015.3 1013.1 0.0
29/04:00pm 32.9 29.0 10.9 26 12.9 ENE 22 33 12 18 1015.1 1012.9 0.0
29/03:30pm 33.3 30.1 11.2 26 13.1 NE 19 28 10 15 1014.8 1012.6 0.0
29/03:00pm 33.8 31.3 11.0 25 13.5 E 15 20 8 11 1014.6 1012.4 0.0
29/02:30pm 32.9 31.3 11.4 27 12.7 NE 11 19 6 10 1014.7 1012.5 0.0
29/02:00pm 32.8 28.5 11.9 28 12.5 N 26 37 14 20 1014.8 1012.6 0.0
29/01:30pm 34.1 30.0 10.0 23 14.0 NE 22 30 12 16 1014.8 1012.6 0.0
29/01:00pm 34.0 29.8 9.9 23 14.0 NE 22 32 12 17 1015.1 1012.9 0.0
29/12:30pm 33.7 30.8 10.9 25 13.5 NNE 17 26 9 14 1015.5 1013.3 0.0
29/12:00pm 34.6 31.0 11.7 25 13.7 NE 22 35 12 19 1015.8 1013.6 0.0
29/11:30am 34.4 30.1 10.9 24 13.9 NE 24 33 13 18 1016.1 1013.9 0.0
29/11:00am 34.9 30.8 11.3 24 14.1 NE 24 35 13 19 1016.5 1014.3 0.0
29/10:30am 33.9 30.5 11.1 25 13.5 NE 20 32 11 17 1016.9 1014.6 0.0
29/10:00am 33.4 30.2 11.3 26 13.1 ENE 19 28 10 15 1017.0 1014.7 0.0
29/09:30am 32.1 29.5 10.7 27 12.5 ESE 15 26 8 14 1017.0 1014.7 0.0
29/09:00am 31.5 28.8 11.8 30 11.7 E 17 20 9 11 1017.2 1014.9 0.0
29/08:30am 30.7 28.4 11.6 31 11.2 E 15 20 8 11 1017.1 1014.8 0.0
29/08:00am 28.7 26.2 12.2 36 9.7 SE 17 19 9 10 1016.8 1014.5 0.0
29/07:30am 26.5 23.6 12.2 41 8.3 SE 19 22 10 12 1016.6 1014.4 0.0
29/07:00am 26.1 23.8 11.8 41 8.3 SE 15 19 8 10 1016.2 1014.0 0.0
29/06:30am 25.6 23.3 11.7 42 8.0 SE 15 17 8 9 1015.8 1013.6 0.0
29/06:00am 25.6 23.3 11.7 42 8.0 SSE 15 19 8 10 1015.5 1013.3 0.0
29/05:30am 25.8 23.5 11.9 42 8.1 SSE 15 17 8 9 1015.3 1013.1 0.0
29/05:00am 25.7 24.2 11.8 42 8.0 SE 11 15 6 8 1015.2 1013.0 0.0
29/04:30am 25.9 23.6 11.6 40 8.2 SSE 15 19 8 10 1014.8 1012.6 0.0
29/04:00am 26.1 23.4 11.8 41 8.3 SSE 17 20 9 11 1014.7 1012.5 0.0
29/03:30am 26.4 24.1 11.7 40 8.5 SSE 15 19 8 10 1014.6 1012.4 0.0
29/03:00am 26.3 24.2 11.2 38 8.7 SE 13 17 7 9 1014.7 1012.5 0.0
29/02:30am 26.7 24.2 11.2 38 8.9 SE 15 17 8 9 1014.7 1012.5 0.0
29/02:00am 27.6 24.8 11.2 36 9.5 SSE 17 22 9 12 1014.7 1012.5 0.0
29/01:30am 27.7 25.9 12.1 38 9.1 SSE 13 17 7 9 1014.9 1012.7 0.0
29/01:00am 27.5 26.3 12.7 40 8.7 ESE 11 17 6 9 1014.9 1012.7 0.0
29/12:30am 28.7 26.9 13.4 39 9.2 SSE 15 19 8 10 1015.0 1012.8 0.0
29/12:00am 28.8 28.2 13.5 39 9.2 SSE 9 13 5 7 1015.2 1013.0 0.0

Other Formats:

Comma delimited format used in spreadsheet applications
http://www.bom.gov.au/fwo/IDW60801/IDW60801.94319.axf

JavaScript Object Notation format (JSON) in row-major order
http://www.bom.gov.au/fwo/IDW60801/IDW60801.94319.json